Marble Hill, Missouri
Current Conditions -  °F | °C
As of 4:53 PM on Monday 24 Nov 2014 (Local Time) from KCGI Reporting Station
Broken Clouds Broken Clouds  
Wind Chill: 42°   Ceiling: 7000
Heat Index: 46°   Visibility: 10mi
Dew Point: 36°   Wind: 7mph
Humidity: 68%   Direction: 260°W
Pressure: 29.87"   Gusts: NA
Location:  37.31°N, 89.97°W
Report Text: KCGI 242253Z AUTO 26006KT 10SM BKN070 08/02 A2987 RMK AO2 SLP116 T00780022 TSNO
Loading
Personal Weather Stations






























Interactive Weather Map New forecast layout! Learn more

10-Day Weather Forecast

Advertisements
Track Severe Weather on mobile